首页
METAR-TAF:

METAR-TAF

机场 :

Muskrat Dam Lake, 安大略省, 加拿大

纬度: 53-26-29N, 经度: 091-45-46W, 海拔: 278米

当前天气观测

该预报发布于23分钟前的03:00 UTC
风速7节,风向东转东北
温度 12°C
湿度 44%
气压 1017 hPa
能見度: 14.5公里
少量云层高于17000英尺
多云层高于25000英尺

METAR: CZMD 010300Z AUTO 07007KT 9SM FEW170 BKN250 12/00 A3002 RMK SLP175

时间: 22:23 (03:23 UTC)

预报

该预报发布于11小时和53分钟前的15:30 UTC
预报有效从31日的 16点(UTC)到 31日的 22点(UTC)
风速5节,风向
能見度: 10公里
散云层高于20000英尺

TAF: CZMD 311530Z 3116/3122 35005KT P6SM SCT200 RMK FCST BASED ON AUTO OBS. NXT FCST WILL BE ISSUED AT 010945Z

超过4000个机场的气象观测和天气预报(METAR&TAF报告)。

可查询的气象台以黄色和红色小点在地图上表示。

将鼠标移到小点上方,可查看气象台名称。

然后点击查看天气观测和预报。

如需切换地图:点击带黑十字的绿色按钮放大地图;点击带横线的绿色按钮缩小地图;或者点击绿色箭头查看邻近地区的地图。


METAR-TAF: